Time;durP1;ratioP1;P1;durP2;ratioP2;P2;SDS_P1;SDS_P2;PMS_P1;PMS_P2;Temp;Humidity;BMP_temperature;BMP_pressure;BME280_temperature;BME280_humidity;BME280_pressure;Samples;Min_cycle;Max_cycle;Signal;HPM_P1;HPM_P2
2023/03/28 00:00:55;;;;;;;;;;;;;;;-140.72;100.00;53137.66;5057404;28;20429;-70
2023/03/28 00:03:21;;;;;;;;;;;;;;;-140.72;100.00;53141.69;5075018;28;20011;-69
2023/03/28 00:05:54;;;;;;;;;;;;;;;-140.72;100.00;53157.94;5074117;28;19921;-69
2023/03/28 00:08:19;;;;;;;;;;;;;;;-140.72;100.00;53170.13;5056267;28;19928;-69
2023/03/28 00:10:45;;;;;;;;;;;;;;;-140.72;100.00;53162.00;5056109;28;19925;-69
2023/03/28 00:13:12;;;;;;;;;;;;;;;-140.72;100.00;53174.19;5072061;28;19928;-69
2023/03/28 00:15:38;;;;;;;;;;;;;;;-140.72;100.00;53162.00;5055985;28;20395;-69
2023/03/28 00:18:04;;;;;;;;;;;;;;;-140.72;100.00;53157.94;5053807;28;20264;-69
2023/03/28 00:20:30;;;;;;;;;;;;;;;-140.72;100.00;53143.72;5073819;28;19924;-70
2023/03/28 00:22:56;;;;;;;;;;;;;;;-140.72;100.00;53164.03;5073012;28;20356;-68
2023/03/28 00:25:21;;;;;;;;;;;;;;;-140.72;100.00;53157.94;5073415;28;20003;-69
2023/03/28 00:27:46;;;;;;;;;;;;;;;-140.72;100.00;53143.72;5070082;28;20082;-70
2023/03/28 00:30:12;;;;;;;;;;;;;;;-140.72;100.00;53176.22;5059141;28;20003;-69
2023/03/28 00:32:37;;;;;;;;;;;;;;;-140.72;100.00;53141.69;5062843;28;19917;-69
2023/03/28 00:35:03;;;;;;;;;;;;;;;-140.72;100.00;53166.06;5067358;28;19974;-69
2023/03/28 00:40:21;;;;;;;;;;;;;;;-140.72;100.00;53162.00;5073512;28;19921;-69
2023/03/28 00:42:46;;;;;;;;;;;;;;;-140.72;100.00;53208.69;5073290;28;20021;-68
2023/03/28 00:45:11;;;;;;;;;;;;;;;-140.72;100.00;53192.44;5057367;28;20036;-69
2023/03/28 00:48:00;;;;;;;;;;;;;;;-140.72;100.00;53200.56;5055864;28;19928;-69
2023/03/28 00:50:31;;;;;;;;;;;;;;;-140.72;100.00;53159.97;5072886;28;19925;-69
2023/03/28 00:53:00;;;;;;;;;;;;;;;-140.72;100.00;53170.13;5060467;28;20031;-69
2023/03/28 00:55:29;;;;;;;;;;;;;;;-140.72;100.00;53194.47;5072243;28;20007;-69
2023/03/28 00:57:54;;;;;;;;;;;;;;;-140.72;100.00;53210.72;5051931;28;19924;-69
2023/03/28 01:00:20;;;;;;;;;;;;;;;-140.72;100.00;53184.31;5072460;28;19920;-69
2023/03/28 01:02:49;;;;;;;;;;;;;;;-140.72;100.00;53137.66;5054545;28;19970;-69
2023/03/28 01:05:15;;;;;;;;;;;;;;;-140.72;100.00;53180.25;5072814;28;20396;-70
2023/03/28 01:07:44;;;;;;;;;;;;;;;-140.72;100.00;53206.66;5053639;28;19921;-69
2023/03/28 01:10:10;;;;;;;;;;;;;;;-140.72;100.00;53151.84;5054910;28;19920;-69
2023/03/28 01:12:36;;;;;;;;;;;;;;;-140.72;100.00;53151.84;5053425;28;19924;-69
2023/03/28 01:15:02;;;;;;;;;;;;;;;-140.72;100.00;53168.09;5071972;28;20282;-69
2023/03/28 01:17:29;;;;;;;;;;;;;;;-140.72;100.00;53162.00;5064647;28;19928;-69
2023/03/28 01:20:04;;;;;;;;;;;;;;;-140.72;100.00;53176.22;5048998;28;20386;-69
2023/03/28 01:23:00;;;;;;;;;;;;;;;-140.72;100.00;53176.22;5071770;28;19958;-70
2023/03/28 01:25:41;;;;;;;;;;;;;;;-140.72;100.00;53166.06;5070380;28;19971;-69
2023/03/28 01:28:25;;;;;;;;;;;;;;;-140.72;100.00;53174.19;5074841;28;19920;-69
2023/03/28 01:31:13;;;;;;;;;;;;;;;-140.72;100.00;53145.75;5067446;28;20294;-69
2023/03/28 01:33:59;;;;;;;;;;;;;;;-140.72;100.00;53206.66;5046783;28;19921;-69
2023/03/28 01:36:39;;;;;;;;;;;;;;;-140.72;100.00;53166.06;5053034;28;19921;-70
2023/03/28 01:39:11;;;;;;;;;;;;;;;-140.72;100.00;53192.44;5071478;28;19925;-69
2023/03/28 01:41:36;;;;;;;;;;;;;;;-140.72;100.00;53170.13;5043829;28;21399;-69
2023/03/28 01:44:09;;;;;;;;;;;;;;;-140.72;100.00;53190.41;5073610;28;19970;-68
2023/03/28 01:46:34;;;;;;;;;;;;;;;-140.72;100.00;53180.25;5070483;28;19924;-68
2023/03/28 01:49:06;;;;;;;;;;;;;;;-140.72;100.00;53170.13;5054762;28;20436;-69
2023/03/28 01:51:40;;;;;;;;;;;;;;;-140.72;100.00;53188.38;5073591;28;19920;-69
2023/03/28 01:54:29;;;;;;;;;;;;;;;-140.72;100.00;53157.94;5055645;28;19917;-69
2023/03/28 01:57:00;;;;;;;;;;;;;;;-140.72;100.00;53176.22;5039179;28;19974;-69
2023/03/28 01:59:31;;;;;;;;;;;;;;;-140.72;100.00;53194.47;5072012;28;20003;-69
2023/03/28 02:02:08;;;;;;;;;;;;;;;-140.72;100.00;53194.47;5054851;28;19920;-69
2023/03/28 02:04:35;;;;;;;;;;;;;;;-140.72;100.00;53214.78;5064353;28;20291;-69
2023/03/28 02:07:23;;;;;;;;;;;;;;;-140.72;100.00;53176.22;5048275;28;19924;-69
2023/03/28 02:09:50;;;;;;;;;;;;;;;-140.72;100.00;53194.47;5072408;28;20424;-69
2023/03/28 02:12:29;;;;;;;;;;;;;;;-140.72;100.00;53151.84;5073145;28;19921;-69
2023/03/28 02:14:56;;;;;;;;;;;;;;;-140.72;100.00;53157.94;5068999;28;20085;-69
2023/03/28 02:17:22;;;;;;;;;;;;;;;-140.72;100.00;53186.34;5047422;28;19939;-69
2023/03/28 02:19:51;;;;;;;;;;;;;;;-140.72;100.00;53186.34;5055166;28;19933;-69
2023/03/28 02:22:45;;;;;;;;;;;;;;;-140.72;100.00;53206.66;5054170;28;19916;-69
2023/03/28 02:25:11;;;;;;;;;;;;;;;-140.72;100.00;53172.16;5044058;28;20485;-69
2023/03/28 02:27:38;;;;;;;;;;;;;;;-140.72;100.00;53186.34;5066142;28;19964;-69
2023/03/28 02:30:04;;;;;;;;;;;;;;;-140.72;100.00;53226.94;5055816;28;20023;-69
2023/03/28 02:32:32;;;;;;;;;;;;;;;-140.72;100.00;53176.22;5055375;28;19917;-70
2023/03/28 02:38:03;;;;;;;;;;;;;;;-140.72;100.00;53172.16;5068171;28;19934;-69
2023/03/28 02:40:39;;;;;;;;;;;;;;;-140.72;100.00;53190.41;5054330;28;20015;-69
2023/03/28 02:43:07;;;;;;;;;;;;;;;-140.72;100.00;53157.94;5054557;28;20393;-69
2023/03/28 02:46:09;;;;;;;;;;;;;;;-140.72;100.00;53194.47;5056447;28;20382;-69
2023/03/28 02:48:34;;;;;;;;;;;;;;;-140.72;100.00;53184.31;5048833;28;19916;-69
2023/03/28 02:51:15;;;;;;;;;;;;;;;-140.72;100.00;53190.41;5070244;28;19927;-69
2023/03/28 02:53:48;;;;;;;;;;;;;;;-140.72;100.00;53206.66;5074351;28;19990;-69
2023/03/28 02:56:23;;;;;;;;;;;;;;;-140.72;100.00;53168.09;5074769;28;19920;-69
2023/03/28 02:58:48;;;;;;;;;;;;;;;-140.72;100.00;53143.72;5074394;28;19946;-70
2023/03/28 03:01:13;;;;;;;;;;;;;;;-140.72;100.00;53231.00;5057506;28;19939;-69
2023/03/28 03:03:39;;;;;;;;;;;;;;;-140.72;100.00;53176.22;5076904;28;20349;-69
2023/03/28 03:06:05;;;;;;;;;;;;;;;-140.72;100.00;53170.13;5072867;28;20338;-69
2023/03/28 03:08:30;;;;;;;;;;;;;;;-140.72;100.00;53149.81;5069141;28;19921;-69
2023/03/28 03:10:56;;;;;;;;;;;;;;;-140.72;100.00;53170.13;5070355;28;19997;-69
2023/03/28 03:13:21;;;;;;;;;;;;;;;-140.72;100.00;53159.97;5068610;28;19920;-69
2023/03/28 03:15:47;;;;;;;;;;;;;;;-140.72;100.00;53170.13;5049595;28;19921;-69
2023/03/28 03:18:12;;;;;;;;;;;;;;;-140.72;100.00;53186.34;5073994;28;19920;-69
2023/03/28 03:20:39;;;;;;;;;;;;;;;-140.72;100.00;53174.19;5065446;28;20003;-69
2023/03/28 03:23:05;;;;;;;;;;;;;;;-140.72;100.00;53194.47;5057364;28;19920;-69
2023/03/28 03:25:30;;;;;;;;;;;;;;;-140.72;100.00;53176.22;5056221;28;20028;-68
2023/03/28 03:27:55;;;;;;;;;;;;;;;-140.72;100.00;53178.22;5055673;28;19927;-69
2023/03/28 03:30:21;;;;;;;;;;;;;;;-140.72;100.00;53204.63;5067964;28;19960;-69
2023/03/28 03:32:46;;;;;;;;;;;;;;;-140.72;100.00;53222.88;5074939;28;19924;-69
2023/03/28 03:35:11;;;;;;;;;;;;;;;-140.72;100.00;53188.38;5074233;28;19920;-70
2023/03/28 03:37:36;;;;;;;;;;;;;;;-140.72;100.00;53159.97;5075025;28;19921;-70
2023/03/28 03:40:04;;;;;;;;;;;;;;;-140.72;100.00;53157.94;5074301;28;19920;-70
2023/03/28 03:42:29;;;;;;;;;;;;;;;-140.72;100.00;53198.53;5075720;28;19917;-70
2023/03/28 03:44:55;;;;;;;;;;;;;;;-140.72;100.00;53172.16;5074148;28;20078;-69
2023/03/28 03:47:20;;;;;;;;;;;;;;;-140.72;100.00;53200.56;5062199;28;19923;-69
2023/03/28 03:49:45;;;;;;;;;;;;;;;-140.72;100.00;53198.53;5074316;28;19925;-69
2023/03/28 03:52:10;;;;;;;;;;;;;;;-140.72;100.00;53198.53;5055463;28;19936;-69
2023/03/28 03:54:36;;;;;;;;;;;;;;;-140.72;100.00;53180.25;5074771;28;19921;-69
2023/03/28 03:57:01;;;;;;;;;;;;;;;-140.72;100.00;53170.13;5054212;28;19975;-70
2023/03/28 03:59:27;;;;;;;;;;;;;;;-140.72;100.00;53174.19;5054146;28;19920;-69
2023/03/28 04:01:52;;;;;;;;;;;;;;;-140.72;100.00;53190.41;5070894;28;20370;-69
2023/03/28 04:04:17;;;;;;;;;;;;;;;-140.72;100.00;53174.19;5066306;28;19970;-70
2023/03/28 04:06:42;;;;;;;;;;;;;;;-140.72;100.00;53194.47;5053076;28;19920;-69
2023/03/28 04:09:08;;;;;;;;;;;;;;;-140.72;100.00;53208.69;5073987;28;20419;-69
2023/03/28 04:11:34;;;;;;;;;;;;;;;-140.72;100.00;53202.59;5054481;28;19960;-70
2023/03/28 04:13:59;;;;;;;;;;;;;;;-140.72;100.00;53188.38;5061163;28;20011;-69
2023/03/28 04:16:25;;;;;;;;;;;;;;;-140.72;100.00;53159.97;5073673;28;19963;-69
2023/03/28 04:18:51;;;;;;;;;;;;;;;-140.72;100.00;53204.63;5055787;28;19928;-70
2023/03/28 04:21:18;;;;;;;;;;;;;;;-140.72;100.00;53178.22;5061724;28;20007;-70
2023/03/28 04:23:47;;;;;;;;;;;;;;;-140.72;100.00;53170.13;5073364;28;19917;-69
2023/03/28 04:26:14;;;;;;;;;;;;;;;-140.72;100.00;53188.38;5077179;28;20374;-69
2023/03/28 04:28:40;;;;;;;;;;;;;;;-140.72;100.00;53162.00;5056873;28;19920;-69
2023/03/28 04:31:06;;;;;;;;;;;;;;;-140.72;100.00;53231.00;5074723;28;19935;-69
2023/03/28 04:33:32;;;;;;;;;;;;;;;-140.72;100.00;53166.06;5056100;28;19924;-69
2023/03/28 04:36:01;;;;;;;;;;;;;;;-140.72;100.00;53198.53;5055882;28;19924;-68
2023/03/28 04:38:27;;;;;;;;;;;;;;;-140.72;100.00;53200.56;5074181;28;19916;-68
2023/03/28 04:40:56;;;;;;;;;;;;;;;-140.72;100.00;53198.53;5073970;28;19917;-69
2023/03/28 04:43:21;;;;;;;;;;;;;;;-140.72;100.00;53145.75;5073379;28;20286;-69
2023/03/28 04:45:47;;;;;;;;;;;;;;;-140.72;100.00;53137.66;5055817;28;19999;-69
2023/03/28 04:48:12;;;;;;;;;;;;;;;-140.72;100.00;53166.06;5055072;28;19916;-69
2023/03/28 04:50:37;;;;;;;;;;;;;;;-140.72;100.00;53168.09;5074079;28;19999;-69
2023/03/28 04:53:02;;;;;;;;;;;;;;;-140.72;100.00;53192.44;5065099;28;19947;-69
2023/03/28 04:55:28;;;;;;;;;;;;;;;-140.72;100.00;53206.66;5055041;28;19956;-69
2023/03/28 04:57:54;;;;;;;;;;;;;;;-140.72;100.00;53176.22;5073417;28;19916;-69
2023/03/28 05:00:21;;;;;;;;;;;;;;;-140.72;100.00;53182.28;5073558;28;19916;-69
2023/03/28 05:02:46;;;;;;;;;;;;;;;-140.72;100.00;53196.50;5073125;28;20015;-69
2023/03/28 05:05:11;;;;;;;;;;;;;;;-140.72;100.00;53190.41;5072209;28;19979;-69
2023/03/28 05:07:37;;;;;;;;;;;;;;;-140.72;100.00;53190.41;5067617;28;20420;-68
2023/03/28 05:10:02;;;;;;;;;;;;;;;-140.72;100.00;53155.91;5069601;28;19921;-69
2023/03/28 05:12:27;;;;;;;;;;;;;;;-140.72;100.00;53155.91;5054078;28;19921;-70
2023/03/28 05:14:52;;;;;;;;;;;;;;;-140.72;100.00;53178.22;5068827;28;19963;-69
2023/03/28 05:17:18;;;;;;;;;;;;;;;-140.72;100.00;53188.38;5068379;28;19998;-69
2023/03/28 05:19:46;;;;;;;;;;;;;;;-140.72;100.00;53192.44;5060062;28;20388;-69
2023/03/28 05:22:12;;;;;;;;;;;;;;;-140.72;100.00;53178.22;5047511;28;19960;-69
2023/03/28 05:24:38;;;;;;;;;;;;;;;-140.72;100.00;53174.19;5051267;28;19936;-69
2023/03/28 05:27:03;;;;;;;;;;;;;;;-140.72;100.00;53194.47;5068679;28;19928;-69
2023/03/28 05:29:28;;;;;;;;;;;;;;;-140.72;100.00;53194.47;5070837;28;20520;-69
2023/03/28 05:31:53;;;;;;;;;;;;;;;-140.72;100.00;53176.22;5048727;28;19924;-69
2023/03/28 05:34:50;;;;;;;;;;;;;;;-140.72;100.00;53133.59;5069850;28;20264;-69
2023/03/28 05:37:15;;;;;;;;;;;;;;;-140.72;100.00;53194.47;5052783;28;19920;-69
2023/03/28 05:39:40;;;;;;;;;;;;;;;-140.72;100.00;53212.75;5072722;28;19916;-71
2023/03/28 05:42:30;;;;;;;;;;;;;;;-140.72;100.00;53178.22;5068849;28;20374;-74
2023/03/28 05:44:55;;;;;;;;;;;;;;;-140.72;100.00;53147.78;5059666;28;19966;-70
2023/03/28 05:47:20;;;;;;;;;;;;;;;-140.72;100.00;53166.06;5039881;28;19917;-69
2023/03/28 05:49:46;;;;;;;;;;;;;;;-140.72;100.00;53194.47;5077286;28;20007;-69
2023/03/28 05:52:11;;;;;;;;;;;;;;;-140.72;100.00;53180.25;5059307;28;19969;-69
2023/03/28 05:54:36;;;;;;;;;;;;;;;-140.72;100.00;53131.56;5077559;28;20000;-69
2023/03/28 05:57:02;;;;;;;;;;;;;;;-140.72;100.00;53145.75;5077374;28;20328;-69
2023/03/28 05:59:27;;;;;;;;;;;;;;;-140.72;100.00;53159.97;5076458;28;19925;-69
2023/03/28 06:01:54;;;;;;;;;;;;;;;-140.72;100.00;53166.06;5078618;28;20298;-70
2023/03/28 06:04:20;;;;;;;;;;;;;;;-140.72;100.00;53133.59;5056524;28;19925;-70
2023/03/28 06:06:47;;;;;;;;;;;;;;;-140.72;100.00;53186.34;5049040;28;19920;-72
2023/03/28 06:09:12;;;;;;;;;;;;;;;-140.72;100.00;53182.28;5058923;28;20282;-70
2023/03/28 06:11:38;;;;;;;;;;;;;;;-140.72;100.00;53164.03;5058904;28;19921;-68
2023/03/28 06:14:03;;;;;;;;;;;;;;;-140.72;100.00;53166.06;5056168;28;19974;-69
2023/03/28 06:16:28;;;;;;;;;;;;;;;-140.72;100.00;53162.00;5074025;28;19963;-69
2023/03/28 06:18:53;;;;;;;;;;;;;;;-140.72;100.00;53129.53;5074756;28;19927;-69
2023/03/28 06:21:19;;;;;;;;;;;;;;;-140.72;100.00;53145.75;5073735;28;20245;-68
2023/03/28 06:23:45;;;;;;;;;;;;;;;-140.72;100.00;53159.97;5074828;28;19925;-69
2023/03/28 06:26:10;;;;;;;;;;;;;;;-140.72;100.00;53131.56;5074474;28;19936;-69
2023/03/28 06:28:35;;;;;;;;;;;;;;;-140.72;100.00;53147.78;5074999;28;20298;-69
2023/03/28 06:31:00;;;;;;;;;;;;;;;-140.72;100.00;53141.69;5072165;28;19952;-69
2023/03/28 06:33:25;;;;;;;;;;;;;;;-140.72;100.00;53157.94;5072818;28;20378;-69
2023/03/28 06:35:51;;;;;;;;;;;;;;;-140.72;100.00;53166.06;5072801;28;20295;-69
2023/03/28 06:38:16;;;;;;;;;;;;;;;-140.72;100.00;53125.47;5070403;28;20397;-69
2023/03/28 06:40:42;;;;;;;;;;;;;;;-140.72;100.00;53103.16;5073493;28;20363;-69
2023/03/28 06:43:07;;;;;;;;;;;;;;;-140.72;100.00;53095.03;5070936;28;19936;-69
2023/03/28 06:45:32;;;;;;;;;;;;;;;-140.72;100.00;53109.22;5072939;28;20007;-69
2023/03/28 06:47:57;;;;;;;;;;;;;;;-140.72;100.00;53088.94;5072419;28;19920;-68
2023/03/28 06:50:23;;;;;;;;;;;;;;;-140.72;100.00;53093.00;5071215;28;19924;-68
2023/03/28 06:52:48;;;;;;;;;;;;;;;-140.72;100.00;53090.97;5074951;28;19974;-69
2023/03/28 06:55:13;;;;;;;;;;;;;;;-140.72;100.00;53109.22;5056881;28;20280;-69
2023/03/28 06:57:38;;;;;;;;;;;;;;;-140.72;100.00;53101.13;5067024;28;20360;-69
2023/03/28 07:00:06;;;;;;;;;;;;;;;-140.72;100.00;53131.56;5072759;28;20286;-69
2023/03/28 07:02:31;;;;;;;;;;;;;;;-140.72;100.00;53076.75;5073256;28;20333;-69
2023/03/28 07:04:56;;;;;;;;;;;;;;;-140.72;100.00;53068.66;5074127;28;19924;-70
2023/03/28 07:07:21;;;;;;;;;;;;;;;-140.72;100.00;53103.16;5076524;28;19924;-69
2023/03/28 07:09:48;;;;;;;;;;;;;;;-140.72;100.00;53090.97;5073482;28;19920;-69
2023/03/28 07:12:14;;;;;;;;;;;;;;;-140.72;100.00;53113.28;5073255;28;19927;-69
2023/03/28 07:14:43;;;;;;;;;;;;;;;-140.72;100.00;53123.44;5073854;28;19924;-69
2023/03/28 07:17:08;;;;;;;;;;;;;;;-140.72;100.00;53076.75;5073321;28;20424;-68
2023/03/28 07:19:33;;;;;;;;;;;;;;;-140.72;100.00;53080.81;5055155;28;19974;-68
2023/03/28 07:21:59;;;;;;;;;;;;;;;-140.72;100.00;53062.56;5068421;28;19931;-69
2023/03/28 07:24:24;;;;;;;;;;;;;;;-140.72;100.00;53042.25;5072800;28;19930;-68
2023/03/28 07:26:49;;;;;;;;;;;;;;;-140.72;100.00;53048.34;5073499;28;20268;-68
2023/03/28 07:29:15;;;;;;;;;;;;;;;-140.72;100.00;53044.28;5073502;28;19931;-68
2023/03/28 07:31:40;;;;;;;;;;;;;;;-140.72;100.00;53076.75;5067097;28;19920;-68
2023/03/28 07:34:05;;;;;;;;;;;;;;;-140.72;100.00;53074.72;5071314;28;19920;-69
2023/03/28 07:36:30;;;;;;;;;;;;;;;-140.72;100.00;53015.88;5074065;28;19932;-69
2023/03/28 07:38:56;;;;;;;;;;;;;;;-140.72;100.00;53060.53;5073589;28;20329;-68
2023/03/28 07:41:21;;;;;;;;;;;;;;;-140.72;100.00;53026.03;5074046;28;19942;-68
2023/03/28 07:43:46;;;;;;;;;;;;;;;-140.72;100.00;53005.72;5074436;28;19928;-71
2023/03/28 07:46:15;;;;;;;;;;;;;;;-140.72;100.00;53021.97;5074629;28;20377;-71
2023/03/28 07:48:41;;;;;;;;;;;;;;;-140.72;100.00;53038.19;5056909;28;19948;-71
2023/03/28 07:51:08;;;;;;;;;;;;;;;-140.72;100.00;53026.03;5054642;28;20061;-69
2023/03/28 07:53:34;;;;;;;;;;;;;;;-140.72;100.00;53026.03;5074531;28;19916;-69
2023/03/28 07:56:00;;;;;;;;;;;;;;;-140.72;100.00;53040.22;5075016;28;20341;-69
2023/03/28 07:58:25;;;;;;;;;;;;;;;-140.72;95.61;53078.78;5073380;28;19968;-69
2023/03/28 08:00:50;;;;;;;;;;;;;;;-140.72;91.04;53032.13;5072034;28;20022;-69
2023/03/28 08:03:17;;;;;;;;;;;;;;;-140.72;70.49;53040.22;5072947;28;19959;-70
2023/03/28 08:05:50;;;;;;;;;;;;;;;-140.72;61.23;53005.72;5053779;28;19932;-69
2023/03/28 08:08:15;;;;;;;;;;;;;;;-140.72;68.17;52987.47;5056036;28;19925;-69
2023/03/28 08:10:44;;;;;;;;;;;;;;;-140.72;46.88;53064.59;5073224;28;19928;-68
2023/03/28 08:13:09;;;;;;;;;;;;;;;-140.72;38.07;53009.78;5054445;28;19970;-69
2023/03/28 08:15:34;;;;;;;;;;;;;;;-140.72;16.06;53003.69;5068446;28;20423;-69
2023/03/28 08:17:59;;;;;;;;;;;;;;;-140.72;0.71;53007.75;5072664;28;19924;-69
2023/03/28 08:20:25;;;;;;;;;;;;;;;-140.72;0.00;52965.16;5072821;28;19951;-69
2023/03/28 08:22:50;;;;;;;;;;;;;;;-140.72;0.00;53021.97;5068429;28;19924;-69
2023/03/28 08:25:15;;;;;;;;;;;;;;;-140.72;0.00;52997.63;5054616;28;19931;-69
2023/03/28 08:27:40;;;;;;;;;;;;;;;-140.72;0.00;52981.38;5075687;28;19928;-69
2023/03/28 08:30:06;;;;;;;;;;;;;;;-140.72;0.00;52981.38;5050056;28;20438;-69
2023/03/28 08:32:31;;;;;;;;;;;;;;;-140.72;0.00;53003.69;5070328;28;20335;-69
2023/03/28 08:34:57;;;;;;;;;;;;;;;-140.72;0.00;52967.16;5072169;28;19926;-69
2023/03/28 08:37:23;;;;;;;;;;;;;;;-140.72;0.00;52971.22;5072054;28;19921;-69
2023/03/28 08:39:49;;;;;;;;;;;;;;;-140.72;0.00;52985.44;5069162;28;19927;-70
2023/03/28 08:42:30;;;;;;;;;;;;;;;-140.72;0.00;52995.59;5071473;28;20107;-69
2023/03/28 08:44:55;;;;;;;;;;;;;;;-140.72;0.00;53019.94;5069354;28;20374;-77
2023/03/28 08:47:23;;;;;;;;;;;;;;;-140.72;0.00;52987.47;5072113;28;19979;-70
2023/03/28 08:49:55;;;;;;;;;;;;;;;-140.72;0.00;52977.31;5055413;28;19959;-70
2023/03/28 08:52:21;;;;;;;;;;;;;;;-140.72;0.00;52991.53;5068577;28;20078;-69
2023/03/28 08:54:50;;;;;;;;;;;;;;;-140.72;0.00;52983.41;5071950;28;19946;-69
2023/03/28 08:57:20;;;;;;;;;;;;;;;-140.72;0.00;53011.81;5071135;28;19921;-69
2023/03/28 08:59:45;;;;;;;;;;;;;;;-140.72;0.00;52987.47;5066531;28;19932;-69
2023/03/28 09:02:21;;;;;;;;;;;;;;;-140.72;0.00;53009.78;5071020;28;19916;-69
2023/03/28 09:04:47;;;;;;;;;;;;;;;-140.72;0.00;52967.16;5071995;28;20442;-69
2023/03/28 09:07:13;;;;;;;;;;;;;;;-140.72;0.00;52944.84;5067888;28;19923;-68
2023/03/28 09:10:01;;;;;;;;;;;;;;;-140.72;0.00;52983.41;5070704;28;19917;-69
2023/03/28 09:12:52;;;;;;;;;;;;;;;-140.72;0.00;52932.66;5036809;28;20014;-69
2023/03/28 09:15:33;;;;;;;;;;;;;;;-140.72;0.00;52983.41;5022391;28;19920;-69
2023/03/28 09:18:17;;;;;;;;;;;;;;;-140.72;0.00;52975.28;5053771;28;19928;-69
2023/03/28 09:20:45;;;;;;;;;;;;;;;-140.72;0.00;52944.84;5053288;28;19959;-69
2023/03/28 09:23:22;;;;;;;;;;;;;;;-140.72;0.00;52942.81;5067724;28;20378;-69
2023/03/28 09:25:50;;;;;;;;;;;;;;;-140.72;0.00;52940.78;5069015;28;19921;-69
2023/03/28 09:28:27;;;;;;;;;;;;;;;-140.72;0.00;52965.16;5067011;28;19935;-69
2023/03/28 09:30:54;;;;;;;;;;;;;;;-140.72;0.00;52965.16;5071054;28;20370;-69
2023/03/28 09:33:25;;;;;;;;;;;;;;;-140.72;0.00;52934.69;5072845;28;19916;-69
2023/03/28 09:35:54;;;;;;;;;;;;;;;-140.72;0.00;52896.16;5049345;28;19921;-69
2023/03/28 09:38:21;;;;;;;;;;;;;;;-140.72;0.00;52967.16;5059404;28;19924;-69
2023/03/28 09:40:50;;;;;;;;;;;;;;;-140.72;0.00;52938.75;5070264;28;19928;-69
2023/03/28 09:43:21;;;;;;;;;;;;;;;-140.72;0.00;52950.94;5053048;28;19924;-69
2023/03/28 09:46:01;;;;;;;;;;;;;;;-140.72;0.00;52952.97;5074167;28;19928;-69
2023/03/28 09:48:28;;;;;;;;;;;;;;;-140.72;0.00;52918.47;5072510;28;20405;-69
2023/03/28 09:50:55;;;;;;;;;;;;;;;-140.72;0.00;52932.66;5072144;28;19974;-69
2023/03/28 09:53:25;;;;;;;;;;;;;;;-140.72;0.00;52952.97;5069850;28;19924;-69
2023/03/28 09:55:50;;;;;;;;;;;;;;;-140.72;0.00;52950.94;5071719;28;20002;-69
2023/03/28 09:58:17;;;;;;;;;;;;;;;-140.72;0.00;52948.91;5071279;28;20455;-69
2023/03/28 10:00:45;;;;;;;;;;;;;;;-140.72;0.00;52890.06;5070876;28;19924;-69
2023/03/28 10:03:33;;;;;;;;;;;;;;;-140.72;0.00;52922.53;5071495;28;20294;-69
2023/03/28 10:05:59;;;;;;;;;;;;;;;-140.72;0.00;52920.50;5069545;28;19927;-69
2023/03/28 10:08:35;;;;;;;;;;;;;;;-140.72;0.00;52946.88;5064750;28;19935;-69
2023/03/28 10:11:05;;;;;;;;;;;;;;;-140.72;0.00;52857.59;5074679;28;19963;-69
2023/03/28 10:13:39;;;;;;;;;;;;;;;-140.72;0.00;52930.66;5072634;28;19966;-69
2023/03/28 10:16:05;;;;;;;;;;;;;;;-140.72;0.00;52934.69;5069501;28;20386;-69
2023/03/28 10:18:30;;;;;;;;;;;;;;;-140.72;0.00;52853.53;5071284;28;19967;-69
2023/03/28 10:21:00;;;;;;;;;;;;;;;-140.72;0.00;52916.44;5068349;28;19920;-70
2023/03/28 10:23:26;;;;;;;;;;;;;;;-140.72;0.00;52894.13;5065389;28;19920;-69
2023/03/28 10:25:54;;;;;;;;;;;;;;;-140.72;0.00;52865.69;5070397;28;19928;-69
2023/03/28 10:28:27;;;;;;;;;;;;;;;-140.72;0.00;52926.59;5053079;28;20378;-69
2023/03/28 10:30:54;;;;;;;;;;;;;;;-140.72;0.00;52898.16;5067221;28;19928;-69
2023/03/28 10:33:25;;;;;;;;;;;;;;;-140.72;0.00;52863.66;5068373;28;19932;-69
2023/03/28 10:35:56;;;;;;;;;;;;;;;-140.72;0.00;52831.19;5055260;28;19974;-69
2023/03/28 10:38:22;;;;;;;;;;;;;;;-140.72;0.00;52890.06;5069035;28;19920;-69
2023/03/28 10:41:01;;;;;;;;;;;;;;;-140.72;0.00;52877.88;5073652;28;20015;-69
2023/03/28 10:43:30;;;;;;;;;;;;;;;-140.72;0.00;52859.63;5068452;28;20290;-69
2023/03/28 10:45:58;;;;;;;;;;;;;;;-140.72;0.00;52904.25;5073137;28;19921;-69
2023/03/28 10:48:28;;;;;;;;;;;;;;;-140.72;0.00;52881.94;5057118;28;19943;-69
2023/03/28 10:50:54;;;;;;;;;;;;;;;-140.72;0.00;52896.16;5056025;28;19942;-69
2023/03/28 10:53:29;;;;;;;;;;;;;;;-140.72;0.00;52908.31;5056852;28;19924;-69
2023/03/28 10:56:09;;;;;;;;;;;;;;;-140.72;0.00;52861.66;5075314;28;19952;-69
2023/03/28 10:58:37;;;;;;;;;;;;;;;-140.72;0.00;52904.25;5074633;28;19920;-69
2023/03/28 11:01:05;;;;;;;;;;;;;;;-140.72;0.00;52930.66;5076171;28;19921;-69
2023/03/28 11:03:49;;;;;;;;;;;;;;;-140.72;0.00;52877.88;5068378;28;20015;-69
2023/03/28 11:06:25;;;;;;;;;;;;;;;-140.72;0.00;52924.56;5073623;28;19927;-69
2023/03/28 11:08:50;;;;;;;;;;;;;;;-140.72;0.00;52879.91;5069642;28;19921;-69
2023/03/28 11:11:18;;;;;;;;;;;;;;;-140.72;0.00;52916.44;5072541;28;19927;-69
2023/03/28 11:13:49;;;;;;;;;;;;;;;-140.72;0.00;52881.94;5074601;28;19924;-70
2023/03/28 11:16:15;;;;;;;;;;;;;;;-140.72;0.00;52869.75;5074150;28;19924;-69
2023/03/28 11:18:52;;;;;;;;;;;;;;;-140.72;0.00;52865.69;5056268;28;20402;-69
2023/03/28 11:21:26;;;;;;;;;;;;;;;-140.72;0.00;52869.75;5072067;28;19920;-71
2023/03/28 11:24:02;;;;;;;;;;;;;;;-140.72;0.00;52924.56;5064689;28;19920;-70
2023/03/28 11:26:30;;;;;;;;;;;;;;;-140.72;0.00;52881.94;5072292;28;19927;-74
2023/03/28 11:29:19;;;;;;;;;;;;;;;-140.72;0.00;52843.38;5074182;28;19959;-69
2023/03/28 11:32:06;;;;;;;;;;;;;;;-140.72;0.00;52902.22;5073202;28;19931;-70
2023/03/28 11:34:34;;;;;;;;;;;;;;;-140.72;0.00;52890.06;5053716;28;19921;-69
2023/03/28 11:37:03;;;;;;;;;;;;;;;-140.72;0.00;52890.06;5056833;28;19931;-69
2023/03/28 11:39:44;;;;;;;;;;;;;;;-140.72;0.00;52892.09;5066479;28;20325;-69
2023/03/28 11:42:23;;;;;;;;;;;;;;;-140.72;0.00;52847.44;5067369;28;19921;-69
2023/03/28 11:45:06;;;;;;;;;;;;;;;-140.72;0.00;52873.81;5073317;28;19964;-69
2023/03/28 11:47:45;;;;;;;;;;;;;;;-140.72;0.00;52912.38;5069082;28;19927;-69
2023/03/28 11:50:20;;;;;;;;;;;;;;;-140.72;0.00;52867.72;5072882;28;20379;-69
2023/03/28 11:52:54;;;;;;;;;;;;;;;-140.72;0.00;52857.59;5067276;28;19943;-69
2023/03/28 11:55:22;;;;;;;;;;;;;;;-140.72;0.00;52865.69;5072262;28;19920;-70
2023/03/28 11:58:01;;;;;;;;;;;;;;;-140.72;0.00;52837.28;5056056;28;20375;-70
2023/03/28 12:00:29;;;;;;;;;;;;;;;-140.72;0.00;52780.47;5054190;28;19936;-69
2023/03/28 12:03:13;;;;;;;;;;;;;;;-140.72;0.00;52861.66;5053387;28;20385;-70
2023/03/28 12:05:44;;;;;;;;;;;;;;;-140.72;0.00;52776.41;5072619;28;19920;-70
2023/03/28 12:08:19;;;;;;;;;;;;;;;-140.72;0.00;52819.03;5073281;28;19920;-70
2023/03/28 12:10:48;;;;;;;;;;;;;;;-140.72;0.00;52817.00;5054004;28;19921;-69
2023/03/28 12:13:15;;;;;;;;;;;;;;;-140.72;0.00;52772.34;5072487;28;19944;-70
2023/03/28 12:15:47;;;;;;;;;;;;;;;-140.72;0.00;52766.25;5047832;28;19920;-70
2023/03/28 12:18:21;;;;;;;;;;;;;;;-140.72;0.00;52754.09;5045386;28;19928;-70
2023/03/28 12:21:09;;;;;;;;;;;;;;;-140.72;0.00;52819.03;5038787;28;20011;-70
2023/03/28 12:23:39;;;;;;;;;;;;;;;-140.72;0.00;52798.72;5051217;28;19921;-69
2023/03/28 12:26:04;;;;;;;;;;;;;;;-140.72;0.00;52837.28;5049550;28;19982;-69
2023/03/28 12:28:41;;;;;;;;;;;;;;;-140.72;0.00;52863.66;5054068;28;19974;-69
2023/03/28 12:31:16;;;;;;;;;;;;;;;-140.72;0.00;52894.13;5033638;28;19937;-70
2023/03/28 12:33:54;;;;;;;;;;;;;;;-140.72;0.00;52857.59;5053545;28;20334;-69
2023/03/28 12:36:20;;;;;;;;;;;;;;;-140.72;0.00;52877.88;5046279;28;19931;-70
2023/03/28 12:39:00;;;;;;;;;;;;;;;-140.72;0.00;52869.75;5052095;28;20294;-70